Terminal Aerodrome Forecast
Issued by NWS

Home | Current Version | Previous Version | Text Only | Print | Product List | Glossary On
Versions: 1 2 3 4 5 6 7 8 9 10 11 12 13 14 15 16
000
FTUS43 KTOP 290520
TAFMHK
TAF
KMHK 290520Z 2906/3006 34003KT P6SM FEW050
     FM291000 35004KT 5SM BR BKN017
     FM291400 36008KT P6SM BKN025
     FM291700 03005KT P6SM FEW025=

USA.gov is the U.S. government's official web portal to all federal, state and local government web resources and services.